Las horas y fechas están en horario UTC
Sumar 1 hora en el horario de invierno y 2 en el de verano

Informes METAR cercanos

 

LEZL - Sevilla (civ/Mil, Spain
Distance from station: NNE 24km
Actualización: 23/05/2017 03:00
Despejado
Despejado
 Viento del SSO
Viento: SSO 15 km/h
Temperatura: 19°C
Rocío: 17°C
Humedad: 88%
Barómetro: 1014 hPa
Clouds: Despejado
Visibility: 10 km
2017/05/23 01:00 LEZL 230100Z AUTO 21008KT 9999 NCD 19/17 Q1014
LEMO - Moron (sp-Usafb), Spain
Distance from station: E 38km
Actualización: 23/05/2017 03:00
Despejado
Despejado
 Viento del SO
Viento: SO 7 km/h
Temperatura: 16°C
Rocío: 12°C
Humedad: 77%
Barómetro: 1015 hPa
Resumen: Despejado
Visibility: greater than 10 km
2017/05/23 01:00 LEMO 230100Z 22004KT CAVOK 16/12 Q1015 NOSIG
LEJR - Jerez (civ/Mil), Spain
Distance from station: S 53km
Actualización: 23/05/2017 03:00
Despejado
Despejado
 Viento del varies
Viento: varies 2 km/h
Temperatura: 15°C
Rocío: 13°C
Humedad: 88%
Barómetro: 1014 hPa
Clouds: Despejado
Visibility: 10 km
2017/05/23 01:00 LEJR 230100Z AUTO VRB01KT 9999 NCD 15/13 Q1014
 
LERT - Rota Naval Stati, Spain
Distance from station: SSO 71km
Actualización: 23/05/2017 03:00
Despejado
Despejado
 Viento del calm
Viento: Calma
Temperatura: 18°C
Rocío: 13°C
Humedad: 73%
Barómetro: 1014 hPa
Resumen: Despejado
Visibility: greater than 10 km
2017/05/23 01:00 LERT 230100Z 00000KT CAVOK 18/13 Q1014 NOSIG
LEBA - Cordoba Airport, Spain
Distance from station: ENE 128km
Actualización: 23/05/2017 03:00
Despejado
Despejado
 Viento del O
Viento: O 6 km/h
Temperatura: 17°C
Rocío: 12°C
Humedad: 73%
Barómetro: 1014 hPa
Clouds: Despejado
Visibility: 10 km
2017/05/23 01:00 LEBA 230100Z AUTO 27003KT 210V290 9999 NCD 17/12 Q1014
LXGB - Gibraltar (civ/M, Gibraltar
Distance from station: SSE 137km
Actualización: 23/05/2017 02:50
Despejado
Despejado
 Viento del ENE
Viento: ENE 6 km/h
Temperatura: 18°C
Rocío: 17°C
Humedad: 94%
Barómetro: 1015 hPa
Clouds: Despejado
Visibility: 10 km
2017/05/23 00:50 LXGB 230050Z AUTO 06003KT 9999 // NCD 18/17 Q1015
 
LEMG - Malaga (civ/Mil), Spain
Distance from station: ESE 150km
Actualización: 23/05/2017 03:00
Despejado
Despejado
 Viento del NO
Viento: NO 7 km/h
Temperatura: 16°C
Rocío: 12°C
Humedad: 77%
Barómetro: 1015 hPa
Resumen: Despejado
Visibility: greater than 10 km
2017/05/23 01:00 LEMG 230100Z 31004KT CAVOK 16/12 Q1015 NOSIG
GMTT - Tangier/Boukhalf, Morocco
Distance from station: S 169km
Actualización: 23/05/2017 03:00
Few Clouds
Few Clouds
 Viento del ENE
Viento: ENE 9 km/h
Temperatura: 18°C
Rocío: 15°C
Humedad: 83%
Barómetro: 1013 hPa
Clouds: Few Clouds
Visibility: 10 km
Cloud details: Few Clouds 305 m
2017/05/23 01:00 GMTT 230100Z 07005KT 9999 R28///// FEW010 18/15 Q1013 NOSIG
LPFR - Faro, Portugal
Distance from station: O 172km
Actualización: 23/05/2017 03:00
Despejado
Despejado
 Viento del NO
Viento: NO 11 km/h
Temperatura: 19°C
Rocío: 16°C
Humedad: 83%
Barómetro: 1014 hPa
Resumen: Despejado
Visibility: greater than 10 km
2017/05/23 01:00 LPFR 230100Z 31006KT CAVOK 19/16 Q1014
 
LPBJ - Beja (por/Ger-Af, Portugal
Distance from station: ONO 192km
Actualización: 23/05/2017 03:00
Despejado
Despejado
 Viento del ONO
Viento: ONO 11 km/h
Temperatura: 17°C
Rocío: 13°C
Humedad: 77%
Barómetro: 1015 hPa
Resumen: Despejado
Visibility: greater than 10 km
2017/05/23 01:00 LPBJ 230100Z 29006KT CAVOK 17/13 Q1015
LEBZ - Talavera Ab/Bada, Spain
Distance from station: NNO 194km
Actualización: 23/05/2017 01:00
NOT Current
Despejado
Despejado
 Viento del O
Viento: O 9 km/h
Temperatura: 21°C
Rocío: 14°C
Humedad: 64%
Barómetro: 1015 hPa
Resumen: Despejado
Visibility: greater than 10 km
2017/05/22 23:00 LEBZ 222300Z 26005KT CAVOK 21/14 Q1015
LEMD - Madrid/Barajas, Spain
Distance from station: NE 415km
Actualización: 23/05/2017 03:00
Despejado
Despejado
 Viento del NNO
Viento: NNO 13 km/h
Temperatura: 20°C
Rocío: 10°C
Humedad: 53%
Barómetro: 1019 hPa
Resumen: Despejado
Visibility: greater than 10 km
2017/05/23 01:00 LEMD 230100Z 33007KT 300V360 CAVOK 20/10 Q1019 NOSIG